Huvudsida
METAR-TAF:

METAR-TAF

Flygplatser :

Hammerfests flygplats

Hammerfests, Norge

latitud: 70-40N, longitud: 023-40E, höjd: 8 m

Aktuellt väderrapport

Denna rapport gjordes för 1 timme och 2 minuter sedan, klockan 02:50 UTC
Vind 9 kt från nord
Temperatur -6°C
Fuktighet 68%
Tryck 989 hPa
Sikt 10 km eller mer
Få moln på en höjd av 1800 ft
Brutna moln på en höjd av 3600 ft
skurar i närheten

METAR: ENHF 190250Z 36009KT 9999 VCSH FEW018 BKN036 M06/M11 Q0989 RMK WIND 1254FT 36015KT

Tid: 04:52 (03:52 UTC)

Väderprognos

Denna rapport gjordes för 1 timme och 52 minuter sedan, klockan 02:00 UTC
Prognos gäller från 19 kl. 03 UTC till 19 kl. 12 UTC
Vind 10 kt från nord
Sikt 10 km eller mer
Få moln på en höjd av 1500 ft, Cumulonimbus.
Temporärt
från 19 kl. 03 UTC till 19 kl. 12 UTC
Vind 8 kt från väst/nordväst i byarna ända upp till 20 kt
Sikt: 1000 m
på en höjd av 700 ft
snöbyar

TAF: ENHF 190200Z 1903/1912 36010KT 9999 FEW015CB TEMPO 1903/1912 30008G20KT 1000 SHSN VV007

Aktuella väderrapporter och prognoser från 4000 flygplatser (METAR- och TAF-rapporter).

De tillgängliga stationerna syns som gula och röda prickar på kartan.

För musen över prickarna för att se namnen på stationerna.

Klicka sedan för att få väderrapporter och prognoser.

För att ändra kartan: Klicka på de gröna knapparna med ett svart kors på för att zooma in; den gröna knappen med ett streck på för att zooma ut; eller på de gröna pilarna för angränsande kartor.


METAR-TAF: